createdAt,value
2022-12-08T00:01:00.559Z,24.83
2022-12-08T00:03:48.152Z,25.46
2022-12-08T00:06:35.758Z,25.76
2022-12-08T00:09:23.409Z,25.99
2022-12-08T00:12:11.056Z,25.52
2022-12-08T00:14:58.658Z,25.37
2022-12-08T00:17:46.293Z,25.35
2022-12-08T00:20:33.871Z,25.99
2022-12-08T00:23:21.470Z,25.21
2022-12-08T00:26:09.057Z,23.75
2022-12-08T00:28:56.629Z,23.54
2022-12-08T00:31:44.339Z,23.44
2022-12-08T00:34:31.969Z,22.98
2022-12-08T00:37:19.546Z,21.68
2022-12-08T00:40:07.273Z,21.31
2022-12-08T00:42:54.905Z,21.08
2022-12-08T00:45:42.548Z,21.89
2022-12-08T00:48:30.186Z,22.37
2022-12-08T00:51:17.746Z,21.90
2022-12-08T00:54:05.324Z,21.70
2022-12-08T00:56:52.898Z,20.60
2022-12-08T00:59:40.471Z,20.57
2022-12-08T01:02:28.039Z,21.72
2022-12-08T01:05:15.642Z,21.99
2022-12-08T01:08:03.276Z,21.72
2022-12-08T01:10:50.945Z,21.27
2022-12-08T01:13:38.514Z,20.72
2022-12-08T01:16:26.165Z,20.94
2022-12-08T01:19:13.820Z,20.36
2022-12-08T01:22:01.406Z,20.52
2022-12-08T01:24:49.032Z,19.86
2022-12-08T01:27:36.601Z,19.96
2022-12-08T01:30:24.335Z,20.39
2022-12-08T01:33:11.935Z,19.95
2022-12-08T01:35:59.579Z,20.88
2022-12-08T01:38:47.167Z,21.02
2022-12-08T01:41:34.780Z,21.09
2022-12-08T01:44:22.411Z,20.61
2022-12-08T01:47:10.010Z,20.90
2022-12-08T01:49:57.590Z,20.78
2022-12-08T01:52:45.133Z,20.92
2022-12-08T01:55:32.730Z,20.42
2022-12-08T01:58:20.318Z,19.96
2022-12-08T02:01:07.968Z,20.79
2022-12-08T02:03:55.567Z,20.09
2022-12-08T02:06:43.166Z,19.59
2022-12-08T02:09:30.755Z,19.56
2022-12-08T02:12:18.317Z,19.40
2022-12-08T02:15:05.897Z,19.59
2022-12-08T02:17:53.533Z,19.47
2022-12-08T02:20:41.097Z,19.33
2022-12-08T02:23:28.707Z,20.19
2022-12-08T02:26:16.277Z,19.87
2022-12-08T02:29:03.852Z,19.85
2022-12-08T02:31:51.418Z,19.19
2022-12-08T02:34:39.026Z,19.75
2022-12-08T02:37:26.607Z,20.50
2022-12-08T02:40:14.249Z,20.11
2022-12-08T02:43:01.833Z,20.35
2022-12-08T02:45:49.456Z,19.85
2022-12-08T02:48:37.064Z,20.24
2022-12-08T02:51:24.619Z,20.54
2022-12-08T02:54:12.218Z,20.64
2022-12-08T02:56:59.789Z,20.37
2022-12-08T02:59:47.393Z,20.79
2022-12-08T03:02:35.027Z,21.17
2022-12-08T03:05:22.647Z,20.86
2022-12-08T03:08:10.272Z,20.65
2022-12-08T03:10:57.951Z,20.39
2022-12-08T03:13:45.517Z,20.49
2022-12-08T03:16:33.103Z,20.66
2022-12-08T03:19:20.651Z,20.26
2022-12-08T03:22:08.265Z,19.66
2022-12-08T03:24:55.827Z,20.04
2022-12-08T03:27:43.445Z,19.55
2022-12-08T03:30:31.052Z,19.65
2022-12-08T03:33:18.641Z,19.11
2022-12-08T03:36:06.221Z,19.82
2022-12-08T03:38:53.833Z,20.35
2022-12-08T03:41:41.423Z,20.21
2022-12-08T03:44:29.003Z,20.60
2022-12-08T03:47:16.588Z,20.98
2022-12-08T03:50:04.590Z,20.22
2022-12-08T03:52:52.291Z,20.71
2022-12-08T03:55:39.869Z,19.98
2022-12-08T03:58:27.450Z,20.49
2022-12-08T04:01:15.023Z,20.18
2022-12-08T04:04:02.590Z,19.98
2022-12-08T04:06:50.274Z,19.61
2022-12-08T04:09:39.823Z,20.13
2022-12-08T04:12:27.417Z,19.30
2022-12-08T04:15:28.281Z,20.47
2022-12-08T04:18:16.874Z,19.40
2022-12-08T04:21:04.471Z,19.51
2022-12-08T04:23:56.094Z,19.67
2022-12-08T04:26:46.838Z,19.50
2022-12-08T04:29:34.421Z,19.45
2022-12-08T04:32:21.983Z,19.49
2022-12-08T04:35:09.569Z,19.85
2022-12-08T04:37:57.182Z,19.27
2022-12-08T04:40:44.739Z,20.01
2022-12-08T04:43:32.342Z,20.06
2022-12-08T04:46:19.950Z,20.08
2022-12-08T04:49:07.675Z,20.00
2022-12-08T04:51:55.240Z,21.09
2022-12-08T04:54:42.834Z,20.46
2022-12-08T04:57:30.390Z,20.59
2022-12-08T05:00:17.985Z,21.60
2022-12-08T05:03:05.609Z,21.05
2022-12-08T05:05:53.285Z,20.76
2022-12-08T05:08:40.852Z,19.46
2022-12-08T05:11:28.446Z,19.49
2022-12-08T05:14:16.058Z,19.20
2022-12-08T05:17:09.172Z,19.55
2022-12-08T05:19:57.198Z,18.94
2022-12-08T05:22:44.799Z,18.70
2022-12-08T05:25:32.385Z,20.03
2022-12-08T05:28:40.646Z,20.22
2022-12-08T05:31:27.562Z,19.47
2022-12-08T05:34:15.177Z,20.19
2022-12-08T05:37:02.869Z,19.84
2022-12-08T05:39:52.436Z,19.33
2022-12-08T05:42:40.134Z,19.67
2022-12-08T05:45:27.749Z,19.36
2022-12-08T05:48:15.385Z,19.82
2022-12-08T05:51:02.980Z,20.77
2022-12-08T05:53:50.602Z,20.22
2022-12-08T05:56:38.202Z,21.30
2022-12-08T05:59:25.788Z,21.92
2022-12-08T06:02:13.545Z,21.24
2022-12-08T06:05:01.243Z,19.74
2022-12-08T06:07:48.842Z,19.62
2022-12-08T06:10:36.467Z,19.67
2022-12-08T06:13:24.075Z,19.80
2022-12-08T06:16:11.725Z,20.10
2022-12-08T06:18:59.313Z,19.57
2022-12-08T06:21:46.882Z,20.89
2022-12-08T06:24:34.495Z,22.10
2022-12-08T06:27:22.060Z,23.25
2022-12-08T06:30:09.637Z,22.78
2022-12-08T06:32:57.207Z,23.23
2022-12-08T06:35:44.806Z,23.88
2022-12-08T06:38:32.418Z,24.73
2022-12-08T06:41:19.980Z,25.77
2022-12-08T06:44:07.566Z,23.49
2022-12-08T06:46:55.156Z,24.43
2022-12-08T06:49:42.900Z,24.69
2022-12-08T06:52:30.567Z,24.73
2022-12-08T06:55:42.393Z,25.78
2022-12-08T06:58:25.771Z,24.92
2022-12-08T07:01:13.471Z,25.31
2022-12-08T07:04:01.086Z,24.99
2022-12-08T07:06:48.680Z,25.02
2022-12-08T07:09:36.244Z,24.90
2022-12-08T07:12:23.899Z,24.97
2022-12-08T07:15:11.483Z,25.19
2022-12-08T07:18:00.331Z,25.07
2022-12-08T07:20:48.211Z,24.59
2022-12-08T07:23:35.797Z,25.65
2022-12-08T07:26:23.403Z,25.29
2022-12-08T07:29:11.049Z,25.34
2022-12-08T07:31:58.607Z,24.96
2022-12-08T07:34:47.228Z,25.60
2022-12-08T07:37:35.058Z,25.11
2022-12-08T07:40:22.615Z,25.12
2022-12-08T07:43:10.242Z,26.15
2022-12-08T07:45:57.906Z,26.13
2022-12-08T07:48:45.525Z,25.89
2022-12-08T07:51:33.135Z,27.11
2022-12-08T07:54:20.718Z,25.64
2022-12-08T07:57:08.297Z,26.27
2022-12-08T07:59:55.904Z,27.49
2022-12-08T08:02:43.599Z,27.39
2022-12-08T08:05:31.224Z,27.99
2022-12-08T08:07:58.686Z,27.71
2022-12-08T08:10:26.612Z,26.65
2022-12-08T08:12:54.584Z,26.66
2022-12-08T08:15:22.046Z,26.61
2022-12-08T08:17:49.700Z,27.23
2022-12-08T08:20:17.422Z,27.15
2022-12-08T08:22:44.759Z,27.16
2022-12-08T08:25:12.090Z,27.15
2022-12-08T08:27:39.448Z,27.34
2022-12-08T08:30:07.095Z,27.30
2022-12-08T08:32:34.982Z,26.72
2022-12-08T08:35:02.772Z,25.82
2022-12-08T08:37:30.612Z,26.71
2022-12-08T08:39:57.925Z,26.01
2022-12-08T08:42:25.259Z,27.54
2022-12-08T08:44:52.618Z,26.60
2022-12-08T08:47:19.983Z,27.60
2022-12-08T08:49:47.403Z,27.28
2022-12-08T08:52:15.083Z,25.95
2022-12-08T08:54:42.390Z,26.40
2022-12-08T08:57:09.780Z,24.64
2022-12-08T08:59:37.089Z,26.61
2022-12-08T09:02:04.679Z,27.17
2022-12-08T09:04:32.061Z,26.73
2022-12-08T09:06:59.543Z,26.63
2022-12-08T09:09:26.792Z,26.99
2022-12-08T09:11:54.085Z,26.55
2022-12-08T09:14:21.433Z,28.15
2022-12-08T09:16:48.838Z,28.46
2022-12-08T09:19:16.134Z,27.66
2022-12-08T09:21:43.412Z,27.05
2022-12-08T09:24:10.754Z,26.94
2022-12-08T09:26:38.129Z,27.08
2022-12-08T09:29:05.487Z,26.14
2022-12-08T09:31:32.955Z,26.87
2022-12-08T09:34:00.299Z,26.10
2022-12-08T09:36:27.638Z,25.34
2022-12-08T09:38:55.043Z,25.66
2022-12-08T09:41:22.363Z,25.66
2022-12-08T09:43:50.037Z,25.49
2022-12-08T09:46:17.625Z,25.08
2022-12-08T09:48:47.386Z,24.24
2022-12-08T09:51:23.562Z,21.38
2022-12-08T09:53:51.023Z,21.17
2022-12-08T09:56:18.395Z,21.54
2022-12-08T09:58:46.153Z,21.98
2022-12-08T10:01:13.678Z,21.91
2022-12-08T10:03:41.011Z,21.58
2022-12-08T10:06:10.318Z,21.65
2022-12-08T10:08:37.624Z,22.26
2022-12-08T10:11:04.927Z,22.14
2022-12-08T10:13:32.234Z,21.78
2022-12-08T10:15:59.544Z,22.54
2022-12-08T10:18:26.860Z,22.19
2022-12-08T10:20:54.145Z,21.46
2022-12-08T10:23:21.591Z,20.34
2022-12-08T10:25:48.951Z,20.21
2022-12-08T10:28:16.282Z,19.82
2022-12-08T10:30:43.547Z,21.22
2022-12-08T10:33:11.212Z,21.25
2022-12-08T10:35:57.434Z,20.60
2022-12-08T10:38:43.346Z,18.04
2022-12-08T10:41:30.940Z,17.94
2022-12-08T10:44:20.365Z,18.57
2022-12-08T10:47:07.995Z,19.04
2022-12-08T10:49:55.607Z,18.24
2022-12-08T10:52:43.195Z,17.97
2022-12-08T10:55:30.747Z,18.24
2022-12-08T10:58:18.337Z,16.86
2022-12-08T11:01:06.054Z,17.64
2022-12-08T11:03:53.747Z,17.06
2022-12-08T11:06:41.320Z,17.50
2022-12-08T11:09:28.887Z,16.64
2022-12-08T11:12:16.482Z,17.42
2022-12-08T11:15:04.050Z,17.67
2022-12-08T11:17:57.398Z,17.47
2022-12-08T11:20:45.283Z,17.89
2022-12-08T11:23:32.897Z,17.89
2022-12-08T11:26:20.482Z,17.20
2022-12-08T11:29:08.047Z,16.78
2022-12-08T11:31:55.728Z,17.33
2022-12-08T11:34:43.429Z,17.95
2022-12-08T11:37:34.741Z,17.41
2022-12-08T11:40:22.913Z,17.44
2022-12-08T11:43:11.695Z,18.04
2022-12-08T11:45:59.415Z,17.67
2022-12-08T11:48:47.061Z,17.28
2022-12-08T11:51:34.649Z,16.82
2022-12-08T11:54:22.262Z,17.59
2022-12-08T11:57:09.899Z,18.11
2022-12-08T11:59:57.506Z,18.89
2022-12-08T12:02:45.179Z,19.65
2022-12-08T12:06:05.328Z,20.84
2022-12-08T12:08:40.415Z,20.00
2022-12-08T12:11:28.098Z,20.68
2022-12-08T12:14:15.689Z,20.83
2022-12-08T12:17:03.453Z,22.63
2022-12-08T12:19:51.145Z,22.68
2022-12-08T12:22:38.742Z,22.97
2022-12-08T12:25:26.307Z,22.97
2022-12-08T12:28:13.899Z,20.50
2022-12-08T12:31:01.528Z,21.53
2022-12-08T12:33:49.177Z,19.94
2022-12-08T12:36:36.789Z,21.68
2022-12-08T12:39:24.372Z,21.31
2022-12-08T12:42:11.982Z,21.35
2022-12-08T12:44:59.600Z,21.88
2022-12-08T12:47:52.397Z,21.16
2022-12-08T12:50:43.374Z,22.06
2022-12-08T12:53:30.994Z,22.81
2022-12-08T12:56:18.586Z,22.62
2022-12-08T12:59:08.174Z,22.69
2022-12-08T13:01:55.767Z,22.56
2022-12-08T13:04:43.380Z,21.50
2022-12-08T13:07:31.079Z,21.52
2022-12-08T13:10:18.661Z,19.79
2022-12-08T13:13:06.282Z,20.43
2022-12-08T13:15:53.892Z,20.53
2022-12-08T13:18:41.498Z,20.60
2022-12-08T13:21:29.121Z,20.58
2022-12-08T13:24:16.767Z,20.48
2022-12-08T13:27:04.348Z,20.05
2022-12-08T13:29:51.967Z,19.77
2022-12-08T13:33:16.245Z,19.46
2022-12-08T13:35:47.091Z,19.73
2022-12-08T13:38:34.683Z,20.13
2022-12-08T13:41:22.282Z,19.84
2022-12-08T13:45:03.688Z,19.76
2022-12-08T13:47:33.329Z,20.10
2022-12-08T13:57:02.435Z,19.69
2022-12-08T13:59:44.651Z,19.77
2022-12-08T14:02:32.264Z,18.32
2022-12-08T14:05:26.599Z,17.71
2022-12-08T14:08:58.006Z,18.34
2022-12-08T14:11:35.030Z,17.99
2022-12-08T14:14:45.894Z,19.32
2022-12-08T14:17:30.199Z,19.06
2022-12-08T14:20:17.786Z,18.32
2022-12-08T14:23:05.392Z,18.28
2022-12-08T14:25:52.971Z,17.78
2022-12-08T14:28:44.780Z,16.74
2022-12-08T14:31:32.948Z,16.59
2022-12-08T14:34:20.585Z,16.79
2022-12-08T14:37:08.171Z,19.88
2022-12-08T14:39:55.802Z,21.30
2022-12-08T14:42:43.428Z,22.47
2022-12-08T14:45:31.106Z,24.53
2022-12-08T14:48:18.711Z,24.62
2022-12-08T14:51:06.319Z,25.92
2022-12-08T14:53:53.987Z,26.29
2022-12-08T14:56:41.625Z,26.27
2022-12-08T14:59:29.229Z,25.59
2022-12-08T15:02:16.831Z,25.70
2022-12-08T15:05:04.500Z,25.53
2022-12-08T15:07:52.208Z,26.18
2022-12-08T15:10:39.851Z,25.50
2022-12-08T15:13:27.435Z,26.06
2022-12-08T15:16:15.055Z,25.29
2022-12-08T15:19:02.678Z,26.43
2022-12-08T15:21:50.271Z,28.70
2022-12-08T15:24:34.827Z,26.74
2022-12-08T15:27:02.202Z,26.48
2022-12-08T15:29:48.398Z,26.73
2022-12-08T15:32:34.377Z,28.09
2022-12-08T15:35:21.993Z,51.88
2022-12-08T15:38:09.564Z,24.77
2022-12-08T15:40:57.163Z,19.90
2022-12-08T15:43:44.742Z,22.21
2022-12-08T15:46:32.396Z,23.21
2022-12-08T15:49:20.037Z,23.40
2022-12-08T15:52:11.694Z,23.45
2022-12-08T15:54:59.568Z,23.41
2022-12-08T16:00:55.459Z,20.76
2022-12-08T16:04:27.532Z,22.11
2022-12-08T16:07:20.432Z,21.29
2022-12-08T16:09:58.617Z,23.30
2022-12-08T16:13:48.211Z,21.99
2022-12-08T16:16:00.641Z,21.18
2022-12-08T16:18:48.851Z,21.03
2022-12-08T16:24:23.778Z,21.36
2022-12-08T16:30:17.124Z,22.06
2022-12-08T16:33:04.728Z,22.83
2022-12-08T16:35:53.608Z,22.29
2022-12-08T16:38:41.196Z,24.46
2022-12-08T16:41:28.799Z,24.84
2022-12-08T16:44:16.364Z,24.27
2022-12-08T16:47:03.968Z,23.86
2022-12-08T16:49:51.599Z,24.95
2022-12-08T16:52:39.193Z,23.55
2022-12-08T16:55:26.766Z,24.26
2022-12-08T16:58:14.360Z,25.16
2022-12-08T17:01:02.005Z,25.82
2022-12-08T17:04:14.465Z,25.17
2022-12-08T17:06:57.146Z,25.69
2022-12-08T17:09:44.745Z,25.01
2022-12-08T17:12:32.375Z,25.47
2022-12-08T17:15:19.976Z,24.06
2022-12-08T17:18:07.552Z,24.34
2022-12-08T17:20:55.139Z,24.62
2022-12-08T17:23:42.730Z,25.40
2022-12-08T17:26:30.362Z,25.62
2022-12-08T17:29:17.964Z,25.27
2022-12-08T17:32:05.562Z,25.96
2022-12-08T17:34:53.222Z,25.91
2022-12-08T17:37:40.802Z,25.29
2022-12-08T17:40:28.612Z,24.97
2022-12-08T17:43:16.201Z,25.18
2022-12-08T17:46:03.893Z,25.08
2022-12-08T17:48:51.491Z,25.19
2022-12-08T17:51:39.079Z,25.60
2022-12-08T17:54:26.656Z,26.86
2022-12-08T17:57:14.230Z,26.89
2022-12-08T18:00:01.863Z,25.85
2022-12-08T18:02:49.528Z,26.06
2022-12-08T18:05:37.179Z,26.67
2022-12-08T18:08:24.863Z,27.00
2022-12-08T18:11:12.480Z,27.92
2022-12-08T18:14:00.109Z,27.81
2022-12-08T18:16:47.789Z,28.32
2022-12-08T18:19:35.459Z,28.52
2022-12-08T18:22:23.035Z,28.82
2022-12-08T18:25:10.643Z,29.21
2022-12-08T18:27:58.208Z,29.19
2022-12-08T18:30:45.892Z,28.99
2022-12-08T18:33:33.549Z,29.42
2022-12-08T18:36:21.150Z,30.46
2022-12-08T18:39:11.001Z,30.26
2022-12-08T18:41:58.779Z,29.35
2022-12-08T18:44:46.383Z,30.06
2022-12-08T18:47:33.934Z,29.82
2022-12-08T18:50:21.549Z,30.39
2022-12-08T18:53:09.121Z,30.38
2022-12-08T18:55:56.790Z,30.39
2022-12-08T18:58:44.358Z,30.67
2022-12-08T19:01:31.996Z,31.32
2022-12-08T19:04:28.379Z,31.77
2022-12-08T19:07:16.721Z,31.93
2022-12-08T19:10:04.545Z,32.32
2022-12-08T19:12:52.357Z,33.55
2022-12-08T19:15:39.973Z,33.02
2022-12-08T19:18:27.645Z,32.23
2022-12-08T19:21:15.215Z,33.02
2022-12-08T19:24:02.784Z,32.24
2022-12-08T19:26:50.381Z,32.63
2022-12-08T19:29:37.979Z,33.16
2022-12-08T19:32:25.591Z,32.87
2022-12-08T19:35:13.199Z,33.36
2022-12-08T19:38:00.775Z,32.32
2022-12-08T19:40:48.370Z,32.57
2022-12-08T19:43:36.000Z,32.30
2022-12-08T19:46:23.736Z,32.66
2022-12-08T19:49:11.387Z,32.34
2022-12-08T19:51:58.989Z,33.11
2022-12-08T19:54:46.579Z,32.06
2022-12-08T19:57:34.153Z,32.85
2022-12-08T20:00:21.770Z,33.20
2022-12-08T20:03:09.491Z,34.24
2022-12-08T20:05:57.147Z,33.79
2022-12-08T20:08:50.227Z,33.79
2022-12-08T20:11:38.248Z,33.37
2022-12-08T20:14:25.858Z,33.25
2022-12-08T20:17:13.430Z,32.47
2022-12-08T20:20:06.538Z,33.67
2022-12-08T20:22:54.871Z,34.01
2022-12-08T20:25:42.501Z,34.68
2022-12-08T20:28:30.084Z,34.05
2022-12-08T20:31:17.743Z,34.05
2022-12-08T20:34:05.406Z,35.36
2022-12-08T20:36:53.027Z,35.75
2022-12-08T20:39:40.594Z,35.08
2022-12-08T20:42:28.210Z,35.21
2022-12-08T20:45:15.801Z,34.27
2022-12-08T20:48:03.503Z,33.80
2022-12-08T20:50:51.095Z,34.00
2022-12-08T20:53:38.871Z,33.94
2022-12-08T20:56:26.514Z,33.32
2022-12-08T20:59:14.256Z,33.33
2022-12-08T21:02:02.127Z,33.02
2022-12-08T21:04:50.016Z,33.30
2022-12-08T21:07:37.730Z,32.05
2022-12-08T21:10:25.417Z,31.48
2022-12-08T21:13:13.025Z,31.21
2022-12-08T21:16:00.943Z,31.18
2022-12-08T21:18:48.714Z,30.34
2022-12-08T21:21:36.493Z,30.44
2022-12-08T21:24:26.621Z,30.18
2022-12-08T21:27:17.941Z,29.64
2022-12-08T21:30:06.144Z,28.80
2022-12-08T21:32:54.146Z,27.12
2022-12-08T21:35:41.850Z,26.10
2022-12-08T21:38:29.545Z,27.90
2022-12-08T21:41:17.190Z,26.84
2022-12-08T21:44:04.871Z,26.39
2022-12-08T21:46:52.602Z,26.64
2022-12-08T21:49:40.427Z,26.39
2022-12-08T21:52:28.167Z,26.48
2022-12-08T21:55:17.777Z,26.58
2022-12-08T21:58:05.576Z,26.77
2022-12-08T22:00:53.433Z,26.03
2022-12-08T22:03:41.149Z,25.93
2022-12-08T22:06:29.095Z,26.12
2022-12-08T22:09:16.979Z,24.96
2022-12-08T22:12:04.731Z,25.75
2022-12-08T22:14:52.452Z,27.11
2022-12-08T22:17:40.170Z,26.46
2022-12-08T22:20:28.200Z,26.67
2022-12-08T22:23:15.952Z,26.84
2022-12-08T22:26:03.684Z,26.22
2022-12-08T22:28:51.311Z,27.27
2022-12-08T22:31:38.950Z,26.07
2022-12-08T22:34:26.831Z,26.08
2022-12-08T22:37:14.409Z,26.36
2022-12-08T22:40:02.024Z,26.14
2022-12-08T22:42:49.628Z,26.29
2022-12-08T22:45:37.537Z,26.19
2022-12-08T22:48:25.417Z,26.03
2022-12-08T22:51:13.028Z,27.21
2022-12-08T22:54:00.593Z,27.09
2022-12-08T22:56:48.228Z,27.23
2022-12-08T22:59:35.817Z,28.15
2022-12-08T23:02:23.538Z,26.95
2022-12-08T23:05:13.183Z,27.09
2022-12-08T23:08:01.139Z,27.35
2022-12-08T23:10:48.917Z,26.69
2022-12-08T23:13:36.563Z,27.47
2022-12-08T23:16:24.437Z,28.25
2022-12-08T23:19:12.170Z,28.27
2022-12-08T23:21:59.755Z,28.42
2022-12-08T23:24:47.592Z,27.23
2022-12-08T23:27:35.189Z,28.52
2022-12-08T23:30:22.777Z,28.93
2022-12-08T23:33:10.640Z,29.13
2022-12-08T23:35:58.390Z,29.24
2022-12-08T23:38:46.188Z,29.77
2022-12-08T23:41:33.833Z,30.31
2022-12-08T23:44:21.432Z,30.08
2022-12-08T23:47:09.147Z,30.75
2022-12-08T23:49:56.855Z,30.08
2022-12-08T23:52:44.484Z,30.38
2022-12-08T23:55:32.102Z,30.23
2022-12-08T23:58:19.718Z,30.14
